sensor_id;sensor_type;location;lat;lon;timestamp;temperature;humidity
16700;DHT22;8466;52.286;21.124;2023-04-25T00:02:10;11.00;99.90
16700;DHT22;8466;52.286;21.124;2023-04-25T00:04:39;11.00;99.90
16700;DHT22;8466;52.286;21.124;2023-04-25T00:07:08;11.00;99.90
16700;DHT22;8466;52.286;21.124;2023-04-25T00:09:39;10.90;99.90
16700;DHT22;8466;52.286;21.124;2023-04-25T00:12:07;10.80;99.90
16700;DHT22;8466;52.286;21.124;2023-04-25T00:14:36;10.80;99.90
16700;DHT22;8466;52.286;21.124;2023-04-25T00:17:05;10.80;99.90
16700;DHT22;8466;52.286;21.124;2023-04-25T00:19:33;10.70;99.90
16700;DHT22;8466;52.286;21.124;2023-04-25T00:22:02;10.70;99.90
16700;DHT22;8466;52.286;21.124;2023-04-25T00:24:30;10.60;99.90
16700;DHT22;8466;52.286;21.124;2023-04-25T00:27:00;10.60;99.90
16700;DHT22;8466;52.286;21.124;2023-04-25T00:29:29;10.60;99.90
16700;DHT22;8466;52.286;21.124;2023-04-25T00:31:58;10.50;99.90
16700;DHT22;8466;52.286;21.124;2023-04-25T00:34:27;10.50;99.90
16700;DHT22;8466;52.286;21.124;2023-04-25T00:36:56;10.50;99.90
16700;DHT22;8466;52.286;21.124;2023-04-25T00:39:25;10.50;99.90
16700;DHT22;8466;52.286;21.124;2023-04-25T00:41:54;10.40;99.90
16700;DHT22;8466;52.286;21.124;2023-04-25T00:44:24;10.40;99.90
16700;DHT22;8466;52.286;21.124;2023-04-25T00:46:55;10.30;99.90
16700;DHT22;8466;52.286;21.124;2023-04-25T00:49:24;10.30;99.90
16700;DHT22;8466;52.286;21.124;2023-04-25T00:51:53;10.30;99.90
16700;DHT22;8466;52.286;21.124;2023-04-25T00:54:21;10.30;99.90
16700;DHT22;8466;52.286;21.124;2023-04-25T00:56:51;10.20;99.90
16700;DHT22;8466;52.286;21.124;2023-04-25T00:59:20;10.20;99.90
16700;DHT22;8466;52.286;21.124;2023-04-25T01:01:51;10.20;99.90
16700;DHT22;8466;52.286;21.124;2023-04-25T01:04:20;10.20;99.90
16700;DHT22;8466;52.286;21.124;2023-04-25T01:06:49;10.10;99.90
16700;DHT22;8466;52.286;21.124;2023-04-25T01:09:19;10.10;99.90
16700;DHT22;8466;52.286;21.124;2023-04-25T01:11:48;10.10;99.90
16700;DHT22;8466;52.286;21.124;2023-04-25T01:14:17;10.10;99.90
16700;DHT22;8466;52.286;21.124;2023-04-25T01:16:46;10.00;99.90
16700;DHT22;8466;52.286;21.124;2023-04-25T01:19:17;10.10;99.90
16700;DHT22;8466;52.286;21.124;2023-04-25T01:21:48;10.00;99.90
16700;DHT22;8466;52.286;21.124;2023-04-25T01:24:17;10.00;99.90
16700;DHT22;8466;52.286;21.124;2023-04-25T01:26:46;10.00;99.90
16700;DHT22;8466;52.286;21.124;2023-04-25T01:29:17;10.00;99.90
16700;DHT22;8466;52.286;21.124;2023-04-25T01:31:46;10.00;99.90
16700;DHT22;8466;52.286;21.124;2023-04-25T01:34:15;10.00;99.90
16700;DHT22;8466;52.286;21.124;2023-04-25T01:36:44;9.90;99.90
16700;DHT22;8466;52.286;21.124;2023-04-25T01:39:14;9.90;99.90
16700;DHT22;8466;52.286;21.124;2023-04-25T01:41:43;9.90;99.90
16700;DHT22;8466;52.286;21.124;2023-04-25T01:44:13;9.90;99.90
16700;DHT22;8466;52.286;21.124;2023-04-25T01:46:41;9.90;99.90
16700;DHT22;8466;52.286;21.124;2023-04-25T01:49:10;9.80;99.90
16700;DHT22;8466;52.286;21.124;2023-04-25T01:51:39;9.80;99.90
16700;DHT22;8466;52.286;21.124;2023-04-25T01:54:08;9.80;99.90
16700;DHT22;8466;52.286;21.124;2023-04-25T01:56:39;9.80;99.90
16700;DHT22;8466;52.286;21.124;2023-04-25T01:59:08;9.80;99.90
16700;DHT22;8466;52.286;21.124;2023-04-25T02:01:40;9.80;99.90
16700;DHT22;8466;52.286;21.124;2023-04-25T02:04:08;9.90;99.90
16700;DHT22;8466;52.286;21.124;2023-04-25T02:06:37;9.90;99.90
16700;DHT22;8466;52.286;21.124;2023-04-25T02:09:06;9.90;99.90
16700;DHT22;8466;52.286;21.124;2023-04-25T02:11:35;9.80;99.90
16700;DHT22;8466;52.286;21.124;2023-04-25T02:14:05;9.80;99.90
16700;DHT22;8466;52.286;21.124;2023-04-25T02:16:33;9.90;99.90
16700;DHT22;8466;52.286;21.124;2023-04-25T02:19:02;9.90;99.90
16700;DHT22;8466;52.286;21.124;2023-04-25T02:21:32;9.90;99.90
16700;DHT22;8466;52.286;21.124;2023-04-25T02:24:03;9.90;99.90
16700;DHT22;8466;52.286;21.124;2023-04-25T02:26:32;10.10;99.90
16700;DHT22;8466;52.286;21.124;2023-04-25T02:29:00;10.10;99.90
16700;DHT22;8466;52.286;21.124;2023-04-25T02:31:30;10.10;99.90
16700;DHT22;8466;52.286;21.124;2023-04-25T02:33:59;10.20;99.90
16700;DHT22;8466;52.286;21.124;2023-04-25T02:36:28;10.20;99.90
16700;DHT22;8466;52.286;21.124;2023-04-25T02:38:59;10.10;99.90
16700;DHT22;8466;52.286;21.124;2023-04-25T02:41:28;10.10;99.90
16700;DHT22;8466;52.286;21.124;2023-04-25T02:43:56;10.10;99.90
16700;DHT22;8466;52.286;21.124;2023-04-25T02:46:25;10.20;99.90
16700;DHT22;8466;52.286;21.124;2023-04-25T02:49:06;10.20;99.90
16700;DHT22;8466;52.286;21.124;2023-04-25T02:51:35;10.20;99.90
16700;DHT22;8466;52.286;21.124;2023-04-25T02:54:04;10.20;99.90
16700;DHT22;8466;52.286;21.124;2023-04-25T02:56:33;10.20;99.90
16700;DHT22;8466;52.286;21.124;2023-04-25T02:59:02;10.10;99.90
16700;DHT22;8466;52.286;21.124;2023-04-25T03:01:30;10.20;99.90
16700;DHT22;8466;52.286;21.124;2023-04-25T03:03:59;10.20;99.90
16700;DHT22;8466;52.286;21.124;2023-04-25T03:06:30;10.20;99.90
16700;DHT22;8466;52.286;21.124;2023-04-25T03:08:59;10.20;99.90
16700;DHT22;8466;52.286;21.124;2023-04-25T03:11:28;10.20;99.90
16700;DHT22;8466;52.286;21.124;2023-04-25T03:13:56;10.20;99.90
16700;DHT22;8466;52.286;21.124;2023-04-25T03:16:25;10.20;99.90
16700;DHT22;8466;52.286;21.124;2023-04-25T03:18:54;10.20;99.90
16700;DHT22;8466;52.286;21.124;2023-04-25T03:21:22;10.20;99.90
16700;DHT22;8466;52.286;21.124;2023-04-25T03:23:53;10.20;99.90
16700;DHT22;8466;52.286;21.124;2023-04-25T03:26:21;10.20;99.90
16700;DHT22;8466;52.286;21.124;2023-04-25T03:28:50;10.20;99.90
16700;DHT22;8466;52.286;21.124;2023-04-25T03:31:23;10.30;99.90
16700;DHT22;8466;52.286;21.124;2023-04-25T03:33:54;10.30;99.90
16700;DHT22;8466;52.286;21.124;2023-04-25T03:36:24;10.40;99.90
16700;DHT22;8466;52.286;21.124;2023-04-25T03:38:54;10.50;99.90
16700;DHT22;8466;52.286;21.124;2023-04-25T03:41:22;10.60;99.90
16700;DHT22;8466;52.286;21.124;2023-04-25T03:43:51;10.70;99.90
16700;DHT22;8466;52.286;21.124;2023-04-25T03:46:19;10.80;99.90
16700;DHT22;8466;52.286;21.124;2023-04-25T03:48:48;10.90;99.90
16700;DHT22;8466;52.286;21.124;2023-04-25T03:51:17;11.00;99.90
16700;DHT22;8466;52.286;21.124;2023-04-25T03:53:47;11.00;99.90
16700;DHT22;8466;52.286;21.124;2023-04-25T03:56:18;11.10;99.90
16700;DHT22;8466;52.286;21.124;2023-04-25T03:58:47;11.20;99.90
16700;DHT22;8466;52.286;21.124;2023-04-25T04:01:15;11.20;99.90
16700;DHT22;8466;52.286;21.124;2023-04-25T04:03:44;11.40;99.90
16700;DHT22;8466;52.286;21.124;2023-04-25T04:06:13;11.40;99.90
16700;DHT22;8466;52.286;21.124;2023-04-25T04:08:42;11.50;99.90
16700;DHT22;8466;52.286;21.124;2023-04-25T04:11:10;11.60;99.90
16700;DHT22;8466;52.286;21.124;2023-04-25T04:13:40;11.60;99.90
16700;DHT22;8466;52.286;21.124;2023-04-25T04:16:09;11.60;99.90
16700;DHT22;8466;52.286;21.124;2023-04-25T04:18:38;11.60;99.90
16700;DHT22;8466;52.286;21.124;2023-04-25T04:21:07;11.70;99.90
16700;DHT22;8466;52.286;21.124;2023-04-25T04:23:35;11.70;99.90
16700;DHT22;8466;52.286;21.124;2023-04-25T04:26:06;11.70;99.90
16700;DHT22;8466;52.286;21.124;2023-04-25T04:28:35;11.80;99.90
16700;DHT22;8466;52.286;21.124;2023-04-25T04:31:06;11.80;99.90
16700;DHT22;8466;52.286;21.124;2023-04-25T04:33:37;11.90;99.90
16700;DHT22;8466;52.286;21.124;2023-04-25T04:36:06;11.90;99.90
16700;DHT22;8466;52.286;21.124;2023-04-25T04:38:35;12.00;99.90
16700;DHT22;8466;52.286;21.124;2023-04-25T04:41:08;12.00;99.90
16700;DHT22;8466;52.286;21.124;2023-04-25T04:43:37;11.90;99.90
16700;DHT22;8466;52.286;21.124;2023-04-25T04:49:53;11.90;99.90
16700;DHT22;8466;52.286;21.124;2023-04-25T04:52:37;12.20;99.90
16700;DHT22;8466;52.286;21.124;2023-04-25T04:55:10;12.20;99.90
16700;DHT22;8466;52.286;21.124;2023-04-25T04:57:43;12.00;99.90
16700;DHT22;8466;52.286;21.124;2023-04-25T05:00:27;12.50;99.90
16700;DHT22;8466;52.286;21.124;2023-04-25T05:02:56;12.70;99.90
16700;DHT22;8466;52.286;21.124;2023-04-25T05:05:29;12.80;99.90
16700;DHT22;8466;52.286;21.124;2023-04-25T05:07:58;12.60;99.90
16700;DHT22;8466;52.286;21.124;2023-04-25T05:10:28;13.20;99.90
16700;DHT22;8466;52.286;21.124;2023-04-25T05:12:57;13.00;99.90
16700;DHT22;8466;52.286;21.124;2023-04-25T05:15:26;13.10;99.90
16700;DHT22;8466;52.286;21.124;2023-04-25T05:17:58;13.10;99.90
16700;DHT22;8466;52.286;21.124;2023-04-25T05:20:29;13.00;99.90
16700;DHT22;8466;52.286;21.124;2023-04-25T05:22:58;13.00;99.90
16700;DHT22;8466;52.286;21.124;2023-04-25T05:25:27;13.10;99.90
16700;DHT22;8466;52.286;21.124;2023-04-25T05:27:56;13.00;99.90
16700;DHT22;8466;52.286;21.124;2023-04-25T05:30:25;13.00;99.90
16700;DHT22;8466;52.286;21.124;2023-04-25T05:32:54;12.90;99.90
16700;DHT22;8466;52.286;21.124;2023-04-25T05:35:23;12.80;99.90
16700;DHT22;8466;52.286;21.124;2023-04-25T05:37:54;12.80;99.90
16700;DHT22;8466;52.286;21.124;2023-04-25T05:40:23;12.70;99.90
16700;DHT22;8466;52.286;21.124;2023-04-25T05:42:52;12.80;99.90
16700;DHT22;8466;52.286;21.124;2023-04-25T05:45:21;12.80;99.90
16700;DHT22;8466;52.286;21.124;2023-04-25T05:47:50;12.80;99.90
16700;DHT22;8466;52.286;21.124;2023-04-25T05:50:19;12.80;99.90
16700;DHT22;8466;52.286;21.124;2023-04-25T05:52:48;12.70;99.90
16700;DHT22;8466;52.286;21.124;2023-04-25T05:55:18;12.60;99.90
16700;DHT22;8466;52.286;21.124;2023-04-25T05:57:50;12.60;99.90
16700;DHT22;8466;52.286;21.124;2023-04-25T06:00:21;12.60;99.90
16700;DHT22;8466;52.286;21.124;2023-04-25T06:02:50;12.70;99.90
16700;DHT22;8466;52.286;21.124;2023-04-25T06:05:20;12.80;99.90
16700;DHT22;8466;52.286;21.124;2023-04-25T06:07:50;12.80;99.90
16700;DHT22;8466;52.286;21.124;2023-04-25T06:10:21;13.00;99.90
16700;DHT22;8466;52.286;21.124;2023-04-25T06:12:50;13.20;99.90
16700;DHT22;8466;52.286;21.124;2023-04-25T06:15:19;13.20;99.90
16700;DHT22;8466;52.286;21.124;2023-04-25T06:17:54;13.40;99.90
16700;DHT22;8466;52.286;21.124;2023-04-25T06:20:24;13.40;99.90
16700;DHT22;8466;52.286;21.124;2023-04-25T06:22:55;13.40;99.90
16700;DHT22;8466;52.286;21.124;2023-04-25T06:25:26;13.30;99.90
16700;DHT22;8466;52.286;21.124;2023-04-25T06:27:55;13.50;99.90
16700;DHT22;8466;52.286;21.124;2023-04-25T06:30:24;13.40;99.90
16700;DHT22;8466;52.286;21.124;2023-04-25T06:32:53;13.30;99.90
16700;DHT22;8466;52.286;21.124;2023-04-25T06:35:22;13.10;99.90
16700;DHT22;8466;52.286;21.124;2023-04-25T06:37:51;12.90;99.90
16700;DHT22;8466;52.286;21.124;2023-04-25T06:40:20;12.80;99.90
16700;DHT22;8466;52.286;21.124;2023-04-25T06:42:51;13.00;99.90
16700;DHT22;8466;52.286;21.124;2023-04-25T06:45:21;12.60;99.90
16700;DHT22;8466;52.286;21.124;2023-04-25T06:47:54;12.40;99.90
16700;DHT22;8466;52.286;21.124;2023-04-25T06:50:23;12.30;99.90
16700;DHT22;8466;52.286;21.124;2023-04-25T06:52:52;12.20;99.90
16700;DHT22;8466;52.286;21.124;2023-04-25T06:55:21;12.10;99.90
16700;DHT22;8466;52.286;21.124;2023-04-25T06:57:55;12.00;99.90
16700;DHT22;8466;52.286;21.124;2023-04-25T07:00:24;11.90;99.90
16700;DHT22;8466;52.286;21.124;2023-04-25T07:02:53;11.80;99.90
16700;DHT22;8466;52.286;21.124;2023-04-25T07:05:23;11.90;99.90
16700;DHT22;8466;52.286;21.124;2023-04-25T07:07:52;11.80;99.90
16700;DHT22;8466;52.286;21.124;2023-04-25T07:10:24;11.80;99.90
16700;DHT22;8466;52.286;21.124;2023-04-25T07:12:59;11.90;99.90
16700;DHT22;8466;52.286;21.124;2023-04-25T07:15:28;12.20;99.90
16700;DHT22;8466;52.286;21.124;2023-04-25T07:18:04;12.40;99.90
16700;DHT22;8466;52.286;21.124;2023-04-25T07:20:44;12.70;99.90
16700;DHT22;8466;52.286;21.124;2023-04-25T07:23:27;13.00;99.90
16700;DHT22;8466;52.286;21.124;2023-04-25T07:26:01;13.30;99.90
16700;DHT22;8466;52.286;21.124;2023-04-25T07:28:32;13.30;99.90
16700;DHT22;8466;52.286;21.124;2023-04-25T07:31:06;13.40;99.90
16700;DHT22;8466;52.286;21.124;2023-04-25T07:33:35;13.50;99.90
16700;DHT22;8466;52.286;21.124;2023-04-25T07:36:05;13.40;99.90
16700;DHT22;8466;52.286;21.124;2023-04-25T07:38:37;13.60;99.90
16700;DHT22;8466;52.286;21.124;2023-04-25T07:41:06;13.50;99.90
16700;DHT22;8466;52.286;21.124;2023-04-25T07:43:37;13.30;99.90
16700;DHT22;8466;52.286;21.124;2023-04-25T07:46:07;13.50;99.90
16700;DHT22;8466;52.286;21.124;2023-04-25T07:48:36;13.60;99.90
16700;DHT22;8466;52.286;21.124;2023-04-25T07:51:08;13.70;99.90
16700;DHT22;8466;52.286;21.124;2023-04-25T07:53:37;13.70;99.90
16700;DHT22;8466;52.286;21.124;2023-04-25T07:56:09;13.80;99.90
16700;DHT22;8466;52.286;21.124;2023-04-25T07:58:52;13.60;99.90
16700;DHT22;8466;52.286;21.124;2023-04-25T08:01:21;13.50;99.90
16700;DHT22;8466;52.286;21.124;2023-04-25T08:03:50;13.50;99.90
16700;DHT22;8466;52.286;21.124;2023-04-25T08:06:20;13.60;99.90
16700;DHT22;8466;52.286;21.124;2023-04-25T08:08:52;13.60;99.90
16700;DHT22;8466;52.286;21.124;2023-04-25T08:11:24;13.70;99.90
16700;DHT22;8466;52.286;21.124;2023-04-25T08:13:54;13.70;99.90
16700;DHT22;8466;52.286;21.124;2023-04-25T08:16:23;13.80;99.90
16700;DHT22;8466;52.286;21.124;2023-04-25T08:18:52;14.10;99.90
16700;DHT22;8466;52.286;21.124;2023-04-25T08:21:21;14.20;99.90
16700;DHT22;8466;52.286;21.124;2023-04-25T08:23:49;14.30;99.90
16700;DHT22;8466;52.286;21.124;2023-04-25T08:26:18;14.20;99.90
16700;DHT22;8466;52.286;21.124;2023-04-25T08:28:47;14.00;99.90
16700;DHT22;8466;52.286;21.124;2023-04-25T08:31:17;13.90;99.90
16700;DHT22;8466;52.286;21.124;2023-04-25T08:33:46;14.00;99.90
16700;DHT22;8466;52.286;21.124;2023-04-25T08:36:16;14.20;99.90
16700;DHT22;8466;52.286;21.124;2023-04-25T08:39:04;14.30;99.90
16700;DHT22;8466;52.286;21.124;2023-04-25T08:41:32;14.40;99.90
16700;DHT22;8466;52.286;21.124;2023-04-25T08:44:03;14.40;99.90
16700;DHT22;8466;52.286;21.124;2023-04-25T08:46:33;14.20;99.90
16700;DHT22;8466;52.286;21.124;2023-04-25T08:49:02;14.00;99.90
16700;DHT22;8466;52.286;21.124;2023-04-25T08:51:32;13.80;99.90
16700;DHT22;8466;52.286;21.124;2023-04-25T08:54:08;13.80;99.90
16700;DHT22;8466;52.286;21.124;2023-04-25T08:56:57;13.70;99.90
16700;DHT22;8466;52.286;21.124;2023-04-25T08:59:27;13.60;99.90
16700;DHT22;8466;52.286;21.124;2023-04-25T09:01:58;13.80;99.90
16700;DHT22;8466;52.286;21.124;2023-04-25T09:04:27;13.90;99.90
16700;DHT22;8466;52.286;21.124;2023-04-25T09:06:58;13.90;99.90
16700;DHT22;8466;52.286;21.124;2023-04-25T09:09:27;13.80;99.90
16700;DHT22;8466;52.286;21.124;2023-04-25T09:11:56;13.60;99.90
16700;DHT22;8466;52.286;21.124;2023-04-25T09:14:25;13.60;99.90
16700;DHT22;8466;52.286;21.124;2023-04-25T09:17:00;13.60;99.90
16700;DHT22;8466;52.286;21.124;2023-04-25T09:19:30;13.30;99.90
16700;DHT22;8466;52.286;21.124;2023-04-25T09:22:07;13.30;99.90
16700;DHT22;8466;52.286;21.124;2023-04-25T09:24:37;13.20;99.90
16700;DHT22;8466;52.286;21.124;2023-04-25T09:27:06;13.10;99.90
16700;DHT22;8466;52.286;21.124;2023-04-25T09:29:36;12.90;99.90
16700;DHT22;8466;52.286;21.124;2023-04-25T09:32:17;12.70;99.90
16700;DHT22;8466;52.286;21.124;2023-04-25T09:34:48;12.60;99.90
16700;DHT22;8466;52.286;21.124;2023-04-25T09:37:18;12.50;99.90
16700;DHT22;8466;52.286;21.124;2023-04-25T09:39:50;12.40;99.90
16700;DHT22;8466;52.286;21.124;2023-04-25T09:42:22;12.30;99.90
16700;DHT22;8466;52.286;21.124;2023-04-25T09:44:52;12.20;99.90
16700;DHT22;8466;52.286;21.124;2023-04-25T09:47:23;12.10;99.90
16700;DHT22;8466;52.286;21.124;2023-04-25T09:49:53;12.00;99.90
16700;DHT22;8466;52.286;21.124;2023-04-25T09:52:23;11.90;99.90
16700;DHT22;8466;52.286;21.124;2023-04-25T09:54:52;11.90;99.90
16700;DHT22;8466;52.286;21.124;2023-04-25T09:57:22;11.80;99.90
16700;DHT22;8466;52.286;21.124;2023-04-25T09:59:53;11.80;99.90
16700;DHT22;8466;52.286;21.124;2023-04-25T10:02:24;11.80;99.90
16700;DHT22;8466;52.286;21.124;2023-04-25T10:04:54;11.80;99.90
16700;DHT22;8466;52.286;21.124;2023-04-25T10:07:25;11.90;99.90
16700;DHT22;8466;52.286;21.124;2023-04-25T10:09:58;12.00;99.90
16700;DHT22;8466;52.286;21.124;2023-04-25T10:12:28;12.00;99.90
16700;DHT22;8466;52.286;21.124;2023-04-25T10:14:58;12.00;99.90
16700;DHT22;8466;52.286;21.124;2023-04-25T10:17:29;11.90;99.90
16700;DHT22;8466;52.286;21.124;2023-04-25T10:20:00;12.00;99.90
16700;DHT22;8466;52.286;21.124;2023-04-25T10:22:34;11.90;99.90
16700;DHT22;8466;52.286;21.124;2023-04-25T10:25:04;12.00;99.90
16700;DHT22;8466;52.286;21.124;2023-04-25T10:27:34;12.00;99.90
16700;DHT22;8466;52.286;21.124;2023-04-25T10:30:06;12.00;99.90
16700;DHT22;8466;52.286;21.124;2023-04-25T10:32:38;12.10;99.90
16700;DHT22;8466;52.286;21.124;2023-04-25T10:35:12;12.20;99.90
16700;DHT22;8466;52.286;21.124;2023-04-25T10:37:59;12.10;99.90
16700;DHT22;8466;52.286;21.124;2023-04-25T10:40:28;12.10;99.90
16700;DHT22;8466;52.286;21.124;2023-04-25T10:43:38;12.20;99.90
16700;DHT22;8466;52.286;21.124;2023-04-25T10:46:17;12.20;99.90
16700;DHT22;8466;52.286;21.124;2023-04-25T10:48:49;12.20;99.90
16700;DHT22;8466;52.286;21.124;2023-04-25T10:51:23;12.10;99.90
16700;DHT22;8466;52.286;21.124;2023-04-25T10:54:00;12.10;99.90
16700;DHT22;8466;52.286;21.124;2023-04-25T10:56:30;12.10;99.90
16700;DHT22;8466;52.286;21.124;2023-04-25T10:59:10;12.20;99.90
16700;DHT22;8466;52.286;21.124;2023-04-25T11:01:45;12.20;99.90
16700;DHT22;8466;52.286;21.124;2023-04-25T11:04:23;12.30;99.90
16700;DHT22;8466;52.286;21.124;2023-04-25T11:07:17;12.40;99.90
16700;DHT22;8466;52.286;21.124;2023-04-25T11:09:50;12.40;99.90
16700;DHT22;8466;52.286;21.124;2023-04-25T11:12:20;12.30;99.90
16700;DHT22;8466;52.286;21.124;2023-04-25T11:14:49;12.30;99.90
16700;DHT22;8466;52.286;21.124;2023-04-25T11:17:18;12.20;99.90
16700;DHT22;8466;52.286;21.124;2023-04-25T11:19:50;12.20;99.90
16700;DHT22;8466;52.286;21.124;2023-04-25T11:22:18;12.20;99.90
16700;DHT22;8466;52.286;21.124;2023-04-25T11:24:49;12.30;99.90
16700;DHT22;8466;52.286;21.124;2023-04-25T11:27:18;12.40;99.90
16700;DHT22;8466;52.286;21.124;2023-04-25T11:29:47;12.40;99.90
16700;DHT22;8466;52.286;21.124;2023-04-25T11:32:17;12.60;99.90
16700;DHT22;8466;52.286;21.124;2023-04-25T11:34:53;12.70;99.90
16700;DHT22;8466;52.286;21.124;2023-04-25T11:37:27;12.90;99.90
16700;DHT22;8466;52.286;21.124;2023-04-25T11:39:56;12.90;99.90
16700;DHT22;8466;52.286;21.124;2023-04-25T11:42:28;12.90;99.90
16700;DHT22;8466;52.286;21.124;2023-04-25T11:44:57;12.90;99.90
16700;DHT22;8466;52.286;21.124;2023-04-25T11:47:29;12.90;99.90
16700;DHT22;8466;52.286;21.124;2023-04-25T11:50:00;13.00;99.90
16700;DHT22;8466;52.286;21.124;2023-04-25T11:52:37;13.00;99.90
16700;DHT22;8466;52.286;21.124;2023-04-25T11:55:08;13.10;99.90
16700;DHT22;8466;52.286;21.124;2023-04-25T11:57:38;13.00;99.90
16700;DHT22;8466;52.286;21.124;2023-04-25T12:00:12;13.00;99.90
16700;DHT22;8466;52.286;21.124;2023-04-25T12:02:51;13.00;99.90
16700;DHT22;8466;52.286;21.124;2023-04-25T12:05:24;13.00;99.90
16700;DHT22;8466;52.286;21.124;2023-04-25T12:08:09;12.90;99.90
16700;DHT22;8466;52.286;21.124;2023-04-25T12:10:43;12.80;99.90
16700;DHT22;8466;52.286;21.124;2023-04-25T12:13:21;12.70;99.90
16700;DHT22;8466;52.286;21.124;2023-04-25T12:15:58;12.80;99.90
16700;DHT22;8466;52.286;21.124;2023-04-25T12:18:36;12.70;99.90
16700;DHT22;8466;52.286;21.124;2023-04-25T12:21:17;12.40;99.90
16700;DHT22;8466;52.286;21.124;2023-04-25T12:23:50;12.40;99.90
16700;DHT22;8466;52.286;21.124;2023-04-25T12:26:22;12.30;99.90
16700;DHT22;8466;52.286;21.124;2023-04-25T12:29:01;12.30;99.90
16700;DHT22;8466;52.286;21.124;2023-04-25T12:31:57;12.30;99.90
16700;DHT22;8466;52.286;21.124;2023-04-25T12:34:27;12.30;99.90
16700;DHT22;8466;52.286;21.124;2023-04-25T12:37:07;12.40;99.90
16700;DHT22;8466;52.286;21.124;2023-04-25T12:40:03;12.40;99.90
16700;DHT22;8466;52.286;21.124;2023-04-25T12:42:35;12.50;99.90
16700;DHT22;8466;52.286;21.124;2023-04-25T12:45:38;12.60;99.90
16700;DHT22;8466;52.286;21.124;2023-04-25T12:48:52;12.90;99.90
16700;DHT22;8466;52.286;21.124;2023-04-25T12:52:07;12.70;99.90
16700;DHT22;8466;52.286;21.124;2023-04-25T12:54:59;12.60;99.90
16700;DHT22;8466;52.286;21.124;2023-04-25T12:57:35;12.80;99.90
16700;DHT22;8466;52.286;21.124;2023-04-25T13:00:32;12.50;99.90
16700;DHT22;8466;52.286;21.124;2023-04-25T13:03:50;12.50;99.90
16700;DHT22;8466;52.286;21.124;2023-04-25T13:07:00;12.40;99.90
16700;DHT22;8466;52.286;21.124;2023-04-25T13:10:26;12.40;99.90
16700;DHT22;8466;52.286;21.124;2023-04-25T13:13:49;12.60;99.90
16700;DHT22;8466;52.286;21.124;2023-04-25T13:16:54;12.40;99.90
16700;DHT22;8466;52.286;21.124;2023-04-25T13:19:29;12.40;99.90
16700;DHT22;8466;52.286;21.124;2023-04-25T13:22:02;12.40;99.90
16700;DHT22;8466;52.286;21.124;2023-04-25T13:24:35;12.50;99.90
16700;DHT22;8466;52.286;21.124;2023-04-25T13:27:08;12.50;99.90
16700;DHT22;8466;52.286;21.124;2023-04-25T13:29:37;12.40;99.90
16700;DHT22;8466;52.286;21.124;2023-04-25T13:32:21;12.40;99.90
16700;DHT22;8466;52.286;21.124;2023-04-25T13:35:08;12.30;99.90
16700;DHT22;8466;52.286;21.124;2023-04-25T13:38:07;12.20;99.90
16700;DHT22;8466;52.286;21.124;2023-04-25T13:41:05;12.30;99.90
16700;DHT22;8466;52.286;21.124;2023-04-25T13:43:44;12.40;99.90
16700;DHT22;8466;52.286;21.124;2023-04-25T13:46:46;12.50;99.90
16700;DHT22;8466;52.286;21.124;2023-04-25T13:49:21;12.50;99.90
16700;DHT22;8466;52.286;21.124;2023-04-25T13:52:26;12.50;99.90
16700;DHT22;8466;52.286;21.124;2023-04-25T13:55:12;12.40;99.90
16700;DHT22;8466;52.286;21.124;2023-04-25T13:57:44;12.40;99.90
16700;DHT22;8466;52.286;21.124;2023-04-25T14:00:22;12.40;99.90
16700;DHT22;8466;52.286;21.124;2023-04-25T14:02:52;12.30;99.90
16700;DHT22;8466;52.286;21.124;2023-04-25T14:05:34;12.20;99.90
16700;DHT22;8466;52.286;21.124;2023-04-25T14:08:16;12.20;99.90
16700;DHT22;8466;52.286;21.124;2023-04-25T14:11:01;12.10;99.90
16700;DHT22;8466;52.286;21.124;2023-04-25T14:13:47;12.00;99.90
16700;DHT22;8466;52.286;21.124;2023-04-25T14:16:44;12.00;99.90
16700;DHT22;8466;52.286;21.124;2023-04-25T14:19:37;12.00;99.90
16700;DHT22;8466;52.286;21.124;2023-04-25T14:22:13;12.00;99.90
16700;DHT22;8466;52.286;21.124;2023-04-25T14:24:44;12.00;99.90
16700;DHT22;8466;52.286;21.124;2023-04-25T14:27:46;12.00;99.90
16700;DHT22;8466;52.286;21.124;2023-04-25T14:30:33;12.00;99.90
16700;DHT22;8466;52.286;21.124;2023-04-25T14:33:10;11.80;99.90
16700;DHT22;8466;52.286;21.124;2023-04-25T14:36:02;11.80;99.90
16700;DHT22;8466;52.286;21.124;2023-04-25T14:39:20;11.70;99.90
16700;DHT22;8466;52.286;21.124;2023-04-25T14:42:46;11.50;99.90
16700;DHT22;8466;52.286;21.124;2023-04-25T14:45:15;11.50;99.90
16700;DHT22;8466;52.286;21.124;2023-04-25T14:48:06;11.60;99.90
16700;DHT22;8466;52.286;21.124;2023-04-25T14:50:54;11.60;99.90
16700;DHT22;8466;52.286;21.124;2023-04-25T14:53:23;11.60;99.90
16700;DHT22;8466;52.286;21.124;2023-04-25T14:55:52;11.60;99.90
16700;DHT22;8466;52.286;21.124;2023-04-25T14:58:21;11.70;99.90
16700;DHT22;8466;52.286;21.124;2023-04-25T15:00:50;11.60;99.90
16700;DHT22;8466;52.286;21.124;2023-04-25T15:03:22;11.60;99.90
16700;DHT22;8466;52.286;21.124;2023-04-25T15:05:51;11.60;99.90
16700;DHT22;8466;52.286;21.124;2023-04-25T15:08:23;11.70;99.90
16700;DHT22;8466;52.286;21.124;2023-04-25T15:10:58;11.70;99.90
16700;DHT22;8466;52.286;21.124;2023-04-25T15:13:28;11.80;99.90
16700;DHT22;8466;52.286;21.124;2023-04-25T15:15:57;11.90;99.90
16700;DHT22;8466;52.286;21.124;2023-04-25T15:18:31;11.90;99.90
16700;DHT22;8466;52.286;21.124;2023-04-25T15:21:03;12.00;99.90
16700;DHT22;8466;52.286;21.124;2023-04-25T15:23:39;12.10;99.90
16700;DHT22;8466;52.286;21.124;2023-04-25T15:26:13;12.20;99.90
16700;DHT22;8466;52.286;21.124;2023-04-25T15:28:43;12.10;99.90
16700;DHT22;8466;52.286;21.124;2023-04-25T15:31:16;12.10;99.90
16700;DHT22;8466;52.286;21.124;2023-04-25T15:33:59;12.00;99.90
16700;DHT22;8466;52.286;21.124;2023-04-25T15:36:33;11.80;99.90
16700;DHT22;8466;52.286;21.124;2023-04-25T15:39:03;11.70;99.90
16700;DHT22;8466;52.286;21.124;2023-04-25T15:41:32;11.50;99.90
16700;DHT22;8466;52.286;21.124;2023-04-25T15:44:01;11.30;99.90
16700;DHT22;8466;52.286;21.124;2023-04-25T15:46:30;11.20;99.90
16700;DHT22;8466;52.286;21.124;2023-04-25T15:48:59;11.10;99.90
16700;DHT22;8466;52.286;21.124;2023-04-25T15:51:31;11.00;99.90
16700;DHT22;8466;52.286;21.124;2023-04-25T15:54:00;10.80;99.90
16700;DHT22;8466;52.286;21.124;2023-04-25T15:56:32;10.80;99.90
16700;DHT22;8466;52.286;21.124;2023-04-25T15:59:19;10.70;99.90
16700;DHT22;8466;52.286;21.124;2023-04-25T16:01:48;10.70;99.90
16700;DHT22;8466;52.286;21.124;2023-04-25T16:04:17;10.70;99.90
16700;DHT22;8466;52.286;21.124;2023-04-25T16:06:46;10.70;99.90
16700;DHT22;8466;52.286;21.124;2023-04-25T16:09:15;10.60;99.90
16700;DHT22;8466;52.286;21.124;2023-04-25T16:11:46;10.60;99.90
16700;DHT22;8466;52.286;21.124;2023-04-25T16:14:15;10.60;99.90
16700;DHT22;8466;52.286;21.124;2023-04-25T16:16:44;10.60;99.90